createdAt,value
2023-03-19T00:00:54.276Z,7.84
2023-03-19T00:06:19.336Z,7.82
2023-03-19T00:11:40.812Z,7.74
2023-03-19T00:17:01.854Z,7.73
2023-03-19T00:22:22.673Z,7.70
2023-03-19T00:27:44.624Z,7.60
2023-03-19T00:33:05.724Z,7.53
2023-03-19T00:38:26.408Z,7.54
2023-03-19T00:43:47.358Z,7.50
2023-03-19T00:49:08.187Z,7.42
2023-03-19T00:54:28.852Z,7.33
2023-03-19T00:59:51.017Z,7.25
2023-03-19T01:05:12.064Z,7.19
2023-03-19T01:10:33.498Z,7.18
2023-03-19T01:15:54.684Z,7.13
2023-03-19T01:21:15.924Z,7.05
2023-03-19T01:26:40.622Z,6.93
2023-03-19T01:32:10.796Z,6.87
2023-03-19T01:37:50.269Z,6.87
2023-03-19T01:43:30.762Z,6.83
2023-03-19T01:49:02.802Z,6.80
2023-03-19T01:54:24.166Z,6.75
2023-03-19T01:59:54.353Z,6.72
2023-03-19T02:05:33.633Z,6.67
2023-03-19T02:11:00.442Z,6.57
2023-03-19T02:16:21.957Z,6.56
2023-03-19T02:21:42.765Z,6.48
2023-03-19T02:27:03.535Z,6.41
2023-03-19T02:32:24.785Z,6.37
2023-03-19T02:37:45.535Z,6.30
2023-03-19T02:43:06.376Z,6.25
2023-03-19T02:48:27.094Z,6.16
2023-03-19T02:53:48.049Z,6.14
2023-03-19T02:59:09.507Z,6.15
2023-03-19T03:04:31.549Z,6.17
2023-03-19T03:09:52.707Z,6.20
2023-03-19T03:15:14.361Z,6.13
2023-03-19T03:20:35.605Z,6.09
2023-03-19T03:25:56.656Z,6.02
2023-03-19T03:31:17.740Z,6.02
2023-03-19T03:36:38.921Z,5.98
2023-03-19T03:42:00.942Z,6.00
2023-03-19T03:47:24.311Z,6.05
2023-03-19T03:52:45.544Z,6.05
2023-03-19T03:58:06.508Z,6.03
2023-03-19T04:03:28.114Z,6.07
2023-03-19T04:08:48.958Z,6.05
2023-03-19T04:14:10.207Z,6.10
2023-03-19T04:19:32.659Z,6.12
2023-03-19T04:24:53.457Z,6.01
2023-03-19T04:30:15.466Z,5.89
2023-03-19T04:35:36.900Z,5.80
2023-03-19T04:40:57.785Z,5.74
2023-03-19T04:46:19.134Z,5.72
2023-03-19T04:51:39.805Z,5.71
2023-03-19T04:57:01.596Z,5.70
2023-03-19T05:02:28.093Z,5.77
2023-03-19T05:07:50.261Z,5.86
2023-03-19T05:13:11.374Z,5.77
2023-03-19T05:18:40.076Z,5.80
2023-03-19T05:24:02.212Z,5.77
2023-03-19T05:29:27.283Z,5.85
2023-03-19T05:35:14.565Z,5.88
2023-03-19T05:40:36.286Z,5.94
2023-03-19T05:46:11.567Z,6.00
2023-03-19T05:51:32.387Z,6.18
2023-03-19T05:56:53.839Z,6.35
2023-03-19T06:02:28.150Z,6.45
2023-03-19T06:08:05.092Z,6.58
2023-03-19T06:13:46.247Z,6.76
2023-03-19T06:19:10.354Z,7.08
2023-03-19T06:24:31.649Z,7.33
2023-03-19T06:29:52.400Z,7.44
2023-03-19T06:35:19.104Z,8.06
2023-03-19T06:40:42.861Z,8.98
2023-03-19T06:46:08.932Z,9.51
2023-03-19T06:51:31.150Z,9.30
2023-03-19T06:56:52.172Z,9.25
2023-03-19T07:02:12.917Z,9.38
2023-03-19T07:07:33.533Z,9.37
2023-03-19T07:12:54.236Z,9.25
2023-03-19T07:18:14.972Z,9.44
2023-03-19T07:23:35.610Z,9.78
2023-03-19T07:28:56.353Z,10.17
2023-03-19T07:34:17.559Z,10.55
2023-03-19T07:39:39.075Z,10.70
2023-03-19T07:45:02.305Z,11.23
2023-03-19T07:50:23.430Z,12.36
2023-03-19T07:55:44.224Z,11.94
2023-03-19T08:01:05.122Z,11.64
2023-03-19T08:06:26.553Z,12.30
2023-03-19T08:11:47.208Z,13.63
2023-03-19T08:17:08.327Z,14.93
2023-03-19T08:22:29.187Z,16.55
2023-03-19T08:27:50.481Z,16.82
2023-03-19T08:33:11.308Z,16.45
2023-03-19T08:38:31.896Z,18.15
2023-03-19T08:43:53.175Z,19.09
2023-03-19T08:49:14.203Z,19.08
2023-03-19T08:54:35.001Z,20.92
2023-03-19T08:59:55.721Z,23.91
2023-03-19T09:05:16.518Z,27.06
2023-03-19T09:10:37.668Z,28.23
2023-03-19T09:15:58.646Z,28.38
2023-03-19T09:21:19.555Z,29.33
2023-03-19T09:26:40.584Z,29.69
2023-03-19T09:32:01.816Z,29.20
2023-03-19T09:37:23.312Z,27.83
2023-03-19T09:43:19.352Z,27.79
2023-03-19T09:48:58.510Z,29.35
2023-03-19T09:54:30.123Z,28.76
2023-03-19T09:59:53.304Z,27.68
2023-03-19T10:05:31.072Z,27.83
2023-03-19T10:10:56.282Z,27.70
2023-03-19T10:16:20.469Z,27.05
2023-03-19T10:22:08.065Z,28.39
2023-03-19T10:27:29.277Z,31.14
2023-03-19T10:32:55.060Z,31.28
2023-03-19T10:38:26.320Z,31.33
2023-03-19T10:43:52.720Z,30.91
2023-03-19T10:49:14.530Z,30.09
2023-03-19T10:54:35.252Z,28.43
2023-03-19T10:59:56.156Z,28.21
2023-03-19T11:05:26.862Z,27.99
2023-03-19T11:10:48.948Z,24.19
2023-03-19T11:16:10.893Z,21.86
2023-03-19T11:21:33.037Z,20.54
2023-03-19T11:26:55.699Z,20.76
2023-03-19T11:32:42.718Z,20.15
2023-03-19T11:38:03.774Z,19.99
2023-03-19T11:43:36.948Z,19.74
2023-03-19T11:49:19.474Z,19.61
2023-03-19T11:54:56.456Z,19.71
2023-03-19T12:00:49.229Z,19.58
2023-03-19T12:06:16.923Z,19.26
2023-03-19T12:11:48.514Z,18.83
2023-03-19T12:17:43.982Z,18.63
2023-03-19T12:23:04.677Z,18.20
2023-03-19T12:28:27.825Z,18.07
2023-03-19T12:33:48.305Z,17.83
2023-03-19T12:39:14.420Z,17.96
2023-03-19T12:44:39.745Z,18.46
2023-03-19T12:50:04.004Z,18.92
2023-03-19T12:55:45.443Z,19.02
2023-03-19T13:01:12.448Z,18.96
2023-03-19T13:06:38.283Z,18.99
2023-03-19T13:12:07.976Z,18.94
2023-03-19T13:17:53.662Z,18.52
2023-03-19T13:23:19.183Z,18.40
2023-03-19T13:29:17.108Z,18.34
2023-03-19T13:34:37.998Z,18.29
2023-03-19T13:39:59.109Z,18.33
2023-03-19T13:45:29.200Z,18.05
2023-03-19T13:51:01.882Z,17.74
2023-03-19T13:56:30.101Z,17.60
2023-03-19T14:01:51.748Z,17.59
2023-03-19T14:07:13.423Z,17.53
2023-03-19T14:12:38.524Z,17.43
2023-03-19T14:18:03.358Z,17.23
2023-03-19T14:23:38.437Z,17.05
2023-03-19T14:29:02.684Z,16.93
2023-03-19T14:34:30.069Z,16.91
2023-03-19T14:40:40.798Z,16.78
2023-03-19T14:46:05.910Z,16.57
2023-03-19T14:51:47.054Z,16.44
2023-03-19T14:57:26.385Z,16.38
2023-03-19T15:02:51.743Z,16.47
2023-03-19T15:08:13.236Z,16.40
2023-03-19T15:14:08.109Z,16.28
2023-03-19T15:19:30.659Z,16.05
2023-03-19T15:24:51.657Z,15.68
2023-03-19T15:30:24.849Z,15.49
2023-03-19T15:35:46.092Z,15.27
2023-03-19T15:41:07.928Z,15.09
2023-03-19T15:46:32.684Z,14.93
2023-03-19T15:51:56.071Z,14.69
2023-03-19T15:57:16.735Z,14.57
2023-03-19T16:02:42.178Z,14.44
2023-03-19T16:08:20.077Z,14.29
2023-03-19T16:21:50.403Z,14.07
2023-03-19T16:33:26.708Z,13.83
2023-03-19T16:39:14.057Z,13.72
2023-03-19T16:44:36.515Z,13.62
2023-03-19T16:49:57.624Z,13.52
2023-03-19T16:55:21.745Z,13.44
2023-03-19T17:00:46.214Z,13.35
2023-03-19T17:06:08.802Z,13.28
2023-03-19T17:11:31.228Z,13.20
2023-03-19T17:16:59.472Z,13.13
2023-03-19T17:22:20.341Z,13.08
2023-03-19T17:27:41.004Z,13.03
2023-03-19T17:33:01.804Z,12.98
2023-03-19T17:38:22.608Z,12.96
2023-03-19T17:43:43.952Z,12.93
2023-03-19T17:49:05.117Z,12.87
2023-03-19T17:54:27.006Z,12.84
2023-03-19T17:59:48.066Z,12.80
2023-03-19T18:05:23.599Z,12.74
2023-03-19T18:10:44.902Z,12.70
2023-03-19T18:16:18.478Z,12.70
2023-03-19T18:21:42.939Z,12.64
2023-03-19T18:27:11.168Z,12.53
2023-03-19T18:32:32.225Z,12.45
2023-03-19T18:37:52.968Z,12.28
2023-03-19T18:43:16.075Z,12.23
2023-03-19T18:48:39.121Z,12.21
2023-03-19T18:54:30.842Z,12.23
2023-03-19T19:00:36.428Z,12.21
2023-03-19T19:13:26.551Z,12.12
2023-03-19T19:18:47.762Z,12.08
2023-03-19T19:24:08.707Z,12.03
2023-03-19T19:29:29.659Z,12.00
2023-03-19T19:35:59.036Z,11.97
2023-03-19T19:41:26.330Z,12.00
2023-03-19T19:46:54.495Z,11.99
2023-03-19T19:52:18.884Z,11.99
2023-03-19T19:57:40.259Z,11.99
2023-03-19T20:03:14.425Z,11.95
2023-03-19T20:08:48.276Z,11.93
2023-03-19T20:14:41.767Z,11.87
2023-03-19T20:35:48.715Z,11.60
2023-03-19T20:41:37.844Z,11.65
2023-03-19T20:47:36.015Z,11.71
2023-03-19T20:53:24.601Z,11.72
2023-03-19T20:59:15.468Z,11.72
2023-03-19T21:05:07.649Z,11.72
2023-03-19T21:11:00.347Z,11.70
2023-03-19T21:16:22.864Z,11.66
2023-03-19T21:21:52.231Z,11.68
2023-03-19T21:27:43.399Z,11.70
2023-03-19T21:33:34.889Z,11.74
2023-03-19T21:38:56.414Z,11.70
2023-03-19T21:44:19.551Z,11.67
2023-03-19T21:50:18.621Z,11.61
2023-03-19T21:55:46.311Z,11.62
2023-03-19T22:01:18.044Z,11.63
2023-03-19T22:07:13.042Z,11.66
2023-03-19T22:12:34.136Z,11.63
2023-03-19T22:17:54.980Z,11.66
2023-03-19T22:23:18.208Z,11.65
2023-03-19T22:28:40.293Z,11.63
2023-03-19T22:34:01.281Z,11.62
2023-03-19T22:39:21.977Z,11.63
2023-03-19T22:44:46.417Z,11.63
2023-03-19T22:50:16.935Z,11.63
2023-03-19T22:55:38.235Z,11.57
2023-03-19T23:00:59.331Z,11.49
2023-03-19T23:06:29.629Z,11.36
2023-03-19T23:11:53.651Z,11.34
2023-03-19T23:17:20.304Z,11.31
2023-03-19T23:22:42.267Z,11.34
2023-03-19T23:28:05.711Z,11.30
2023-03-19T23:33:31.949Z,11.31
2023-03-19T23:38:53.790Z,11.29
2023-03-19T23:44:17.752Z,11.25
2023-03-19T23:49:39.558Z,11.23
2023-03-19T23:55:06.988Z,11.22
